Time;durP1;ratioP1;P1;durP2;ratioP2;P2;SDS_P1;SDS_P2;PMS_P1;PMS_P2;Temp;Humidity;BMP_temperature;BMP_pressure;BME280_temperature;BME280_humidity;BME280_pressure;Samples;Min_cycle;Max_cycle;Signal;HPM_P1;HPM_P2
2022/07/29 00:00:29;;;;;;;;;;;;;;;18.73;59.81;100603.56;4993463;28;985;-90
2022/07/29 00:02:54;;;;;;;;;;;;;;;18.74;60.01;100601.59;4976884;28;1331;-90
2022/07/29 00:05:19;;;;;;;;;;;;;;;18.61;62.31;100599.88;4990231;28;1607;-90
2022/07/29 00:07:45;;;;;;;;;;;;;;;18.72;60.89;100596.38;4996364;28;1401;-90
2022/07/29 00:10:10;;;;;;;;;;;;;;;18.67;62.11;100591.03;5013124;28;1030;-91
2022/07/29 00:12:35;;;;;;;;;;;;;;;18.50;62.68;100579.97;5012941;28;1492;-90
2022/07/29 00:15:00;;;;;;;;;;;;;;;18.48;63.26;100576.72;5012734;28;1926;-89
2022/07/29 00:17:25;;;;;;;;;;;;;;;18.35;65.56;100567.47;5013045;28;1256;-90
2022/07/29 00:19:51;;;;;;;;;;;;;;;18.47;63.25;100567.59;5012319;28;1746;-90
2022/07/29 00:22:16;;;;;;;;;;;;;;;18.49;62.15;100567.25;4996504;28;1198;-89
2022/07/29 00:24:41;;;;;;;;;;;;;;;18.45;62.58;100563.53;4996030;28;1200;-89
2022/07/29 00:27:06;;;;;;;;;;;;;;;18.34;64.50;100562.25;4996426;28;1235;-90
2022/07/29 00:29:32;;;;;;;;;;;;;;;18.35;63.91;100550.03;4994063;28;1380;-89
2022/07/29 00:31:57;;;;;;;;;;;;;;;18.40;62.84;100556.19;4990761;28;1491;-90
2022/07/29 00:37:06;;;;;;;;;;;;;;;17.97;62.51;100547.19;4997150;28;1340;-89
2022/07/29 00:39:31;;;;;;;;;;;;;;;18.12;64.61;100549.44;4995744;28;1365;-89
2022/07/29 00:41:56;;;;;;;;;;;;;;;17.90;64.40;100544.94;5012077;28;1043;-89
2022/07/29 00:44:21;;;;;;;;;;;;;;;17.94;63.72;100551.44;5011772;28;1231;-89
2022/07/29 00:46:46;;;;;;;;;;;;;;;17.83;60.08;100544.63;5011383;28;1326;-90
2022/07/29 00:49:12;;;;;;;;;;;;;;;17.97;60.45;100552.72;5011842;28;1169;-90
2022/07/29 00:51:38;;;;;;;;;;;;;;;18.06;57.94;100550.75;4996274;28;1177;-90
2022/07/29 00:54:04;;;;;;;;;;;;;;;18.12;57.97;100553.00;4992418;28;1942;-90
2022/07/29 00:56:30;;;;;;;;;;;;;;;18.29;57.75;100546.59;4977108;28;1324;-90
2022/07/29 00:58:56;;;;;;;;;;;;;;;18.20;55.75;100550.56;5007055;28;1722;-89
2022/07/29 01:01:21;;;;;;;;;;;;;;;18.19;59.34;100555.31;4991407;28;1322;-88
2022/07/29 01:03:46;;;;;;;;;;;;;;;18.21;57.41;100543.88;4990554;28;1023;-90
2022/07/29 01:06:11;;;;;;;;;;;;;;;18.26;57.73;100546.47;4991823;28;1570;-89
2022/07/29 01:08:36;;;;;;;;;;;;;;;18.30;58.22;100539.94;4998815;28;1225;-89
2022/07/29 01:11:02;;;;;;;;;;;;;;;18.39;57.96;100540.72;5014511;28;1268;-90
2022/07/29 01:13:27;;;;;;;;;;;;;;;18.40;60.42;100535.97;5015093;28;1893;-90
2022/07/29 01:16:12;;;;;;;;;;;;;;;18.26;60.23;100535.41;4986830;28;1572;-90
2022/07/29 01:18:40;;;;;;;;;;;;;;;18.34;59.97;100527.06;4991992;28;1294;-90
2022/07/29 01:21:08;;;;;;;;;;;;;;;18.22;61.02;100532.47;4977057;28;1055;-89
2022/07/29 01:23:52;;;;;;;;;;;;;;;18.31;57.58;100527.69;4986501;28;1495;-89
2022/07/29 01:26:36;;;;;;;;;;;;;;;18.24;59.20;100521.03;4987712;28;1671;-90
2022/07/29 01:29:03;;;;;;;;;;;;;;;18.22;59.71;100520.56;4991193;28;1703;-89
2022/07/29 01:31:47;;;;;;;;;;;;;;;18.03;59.74;100520.97;4986330;28;1010;-90
2022/07/29 01:34:17;;;;;;;;;;;;;;;18.17;59.45;100518.78;4994700;28;1906;-89
2022/07/29 01:36:50;;;;;;;;;;;;;;;18.22;60.58;100510.28;4996089;28;1319;-89
2022/07/29 01:39:33;;;;;;;;;;;;;;;18.07;59.25;100505.28;4996550;28;1184;-89
2022/07/29 01:41:58;;;;;;;;;;;;;;;17.87;62.33;100506.00;4996234;28;1302;-90
2022/07/29 01:44:30;;;;;;;;;;;;;;;17.97;62.26;100516.72;4996965;28;1279;-90
2022/07/29 01:46:57;;;;;;;;;;;;;;;17.98;60.96;100502.56;4996100;28;1509;-89
2022/07/29 01:49:28;;;;;;;;;;;;;;;17.97;60.11;100500.91;4996768;28;1224;-89
2022/07/29 01:52:14;;;;;;;;;;;;;;;17.87;61.04;100506.00;4980104;28;1267;-90
2022/07/29 01:54:42;;;;;;;;;;;;;;;17.75;61.89;100504.72;4995817;28;1945;-90
2022/07/29 01:57:09;;;;;;;;;;;;;;;17.80;62.48;100500.97;4993475;28;1431;-89
2022/07/29 01:59:36;;;;;;;;;;;;;;;17.74;64.47;100494.78;4977359;28;1420;-89
2022/07/29 02:02:01;;;;;;;;;;;;;;;17.60;62.52;100496.91;4992805;28;1225;-89
2022/07/29 02:04:27;;;;;;;;;;;;;;;17.68;64.04;100498.88;4993001;28;1299;-89
2022/07/29 02:06:54;;;;;;;;;;;;;;;17.67;63.54;100491.72;4992953;28;1311;-89
2022/07/29 02:09:20;;;;;;;;;;;;;;;17.75;61.28;100495.59;4992489;28;1481;-89
2022/07/29 02:11:48;;;;;;;;;;;;;;;17.78;62.72;100490.22;4992042;28;1239;-89
2022/07/29 02:14:14;;;;;;;;;;;;;;;17.74;64.19;100478.19;4993030;28;1965;-90
2022/07/29 02:16:40;;;;;;;;;;;;;;;17.56;61.68;100484.03;4992598;28;1272;-90
2022/07/29 02:19:06;;;;;;;;;;;;;;;17.67;62.46;100485.34;4992191;28;1287;-90
2022/07/29 02:21:33;;;;;;;;;;;;;;;17.62;61.56;100472.50;4992855;28;1334;-89
2022/07/29 02:24:18;;;;;;;;;;;;;;;17.63;62.05;100476.88;4992721;28;1279;-90
2022/07/29 02:26:44;;;;;;;;;;;;;;;17.58;63.94;100479.00;4992628;28;1430;-90
2022/07/29 02:29:10;;;;;;;;;;;;;;;17.66;61.27;100478.19;5008254;23;3628;-85
2022/07/29 02:31:36;;;;;;;;;;;;;;;17.55;62.90;100466.63;4990726;28;1359;-85
2022/07/29 02:34:06;;;;;;;;;;;;;;;17.54;63.61;100469.69;4981796;28;1923;-85
2022/07/29 02:36:32;;;;;;;;;;;;;;;17.58;65.50;100463.19;5006228;28;1483;-86
2022/07/29 02:39:00;;;;;;;;;;;;;;;17.42;65.07;100464.84;4982311;28;1763;-85
2022/07/29 02:41:33;;;;;;;;;;;;;;;17.36;65.37;100457.84;4978578;28;1757;-85
2022/07/29 02:44:01;;;;;;;;;;;;;;;17.24;66.86;100466.81;4991046;28;1623;-84
2022/07/29 02:46:30;;;;;;;;;;;;;;;17.32;65.84;100462.41;4980449;28;1457;-86
2022/07/29 02:48:58;;;;;;;;;;;;;;;17.33;65.44;100458.50;4976152;28;1821;-85
2022/07/29 02:51:27;;;;;;;;;;;;;;;17.23;66.13;100464.38;4977231;28;1405;-86
2022/07/29 02:53:54;;;;;;;;;;;;;;;17.09;66.73;100470.06;4978039;28;1907;-85
2022/07/29 02:56:23;;;;;;;;;;;;;;;16.97;67.17;100465.16;4979018;28;1446;-85
2022/07/29 02:58:53;;;;;;;;;;;;;;;16.90;65.86;100467.59;4987375;28;1460;-85
2022/07/29 03:01:21;;;;;;;;;;;;;;;17.03;66.90;100460.28;4977945;28;1370;-86
2022/07/29 03:03:48;;;;;;;;;;;;;;;17.01;67.34;100466.13;4968508;28;1720;-85
2022/07/29 03:06:15;;;;;;;;;;;;;;;17.12;67.51;100455.56;4992982;28;1444;-85
2022/07/29 03:08:41;;;;;;;;;;;;;;;17.06;66.92;100461.59;4985179;28;1703;-86
2022/07/29 03:11:07;;;;;;;;;;;;;;;17.14;66.98;100460.78;4993113;28;1440;-85
2022/07/29 03:13:32;;;;;;;;;;;;;;;17.10;67.63;100459.81;4988262;28;1976;-84
2022/07/29 03:15:58;;;;;;;;;;;;;;;17.13;67.53;100468.25;4978537;28;1696;-85
2022/07/29 03:18:24;;;;;;;;;;;;;;;17.06;65.98;100469.88;4976991;28;1608;-85
2022/07/29 03:20:49;;;;;;;;;;;;;;;17.01;67.19;100470.88;4981066;28;1782;-86
2022/07/29 03:23:18;;;;;;;;;;;;;;;17.04;66.15;100464.69;4987235;28;1471;-85
2022/07/29 03:25:44;;;;;;;;;;;;;;;17.02;66.38;100458.66;4978100;28;1804;-86
2022/07/29 03:28:10;;;;;;;;;;;;;;;16.96;69.35;100460.78;4977033;28;1425;-85
2022/07/29 03:30:35;;;;;;;;;;;;;;;16.94;68.82;100456.69;4990618;28;1215;-85
2022/07/29 03:33:00;;;;;;;;;;;;;;;16.90;66.97;100458.50;4983333;28;1555;-85
2022/07/29 03:35:25;;;;;;;;;;;;;;;16.92;66.95;100464.53;4995273;28;1910;-85
2022/07/29 03:37:51;;;;;;;;;;;;;;;17.01;66.36;100459.81;4978516;28;1361;-85
2022/07/29 03:40:24;;;;;;;;;;;;;;;16.91;67.38;100460.94;4979390;28;1028;-85
2022/07/29 03:42:51;;;;;;;;;;;;;;;16.87;66.96;100462.72;4981673;28;1515;-85
2022/07/29 03:45:18;;;;;;;;;;;;;;;16.88;67.08;100447.75;4982306;28;1227;-85
2022/07/29 03:47:47;;;;;;;;;;;;;;;16.85;68.07;100458.63;4980792;28;1739;-85
2022/07/29 03:50:14;;;;;;;;;;;;;;;16.81;69.55;100449.38;4991836;28;1310;-85
2022/07/29 03:52:40;;;;;;;;;;;;;;;16.94;68.43;100456.69;4971506;28;1668;-85
2022/07/29 03:55:05;;;;;;;;;;;;;;;16.71;67.07;100450.50;4981077;28;1890;-85
2022/07/29 03:57:31;;;;;;;;;;;;;;;16.68;69.95;100450.31;4995284;28;1584;-85
2022/07/29 03:59:57;;;;;;;;;;;;;;;16.67;69.07;100457.81;4966842;28;1393;-85
2022/07/29 04:02:22;;;;;;;;;;;;;;;16.58;68.93;100465.25;4974193;28;1452;-85
2022/07/29 04:04:48;;;;;;;;;;;;;;;16.62;68.84;100463.47;4986925;28;1438;-86
2022/07/29 04:07:14;;;;;;;;;;;;;;;16.61;69.91;100459.09;4995806;28;1355;-85
2022/07/29 04:09:39;;;;;;;;;;;;;;;16.70;68.74;100461.88;4998368;28;1587;-85
2022/07/29 04:12:04;;;;;;;;;;;;;;;16.67;70.44;100463.34;4999296;28;1773;-85
2022/07/29 04:14:31;;;;;;;;;;;;;;;16.64;70.14;100462.03;4983513;28;1945;-85
2022/07/29 04:16:56;;;;;;;;;;;;;;;16.57;70.68;100455.31;4992413;28;1505;-85
2022/07/29 04:19:22;;;;;;;;;;;;;;;16.64;69.85;100458.44;4976534;28;1555;-85
2022/07/29 04:21:47;;;;;;;;;;;;;;;16.61;68.27;100464.63;4993825;28;1767;-85
2022/07/29 04:24:12;;;;;;;;;;;;;;;16.74;69.57;100463.69;4982153;28;1772;-85
2022/07/29 04:26:37;;;;;;;;;;;;;;;16.83;66.04;100463.69;4997641;28;1439;-85
2022/07/29 04:29:03;;;;;;;;;;;;;;;16.90;64.78;100478.66;4997389;28;1379;-86
2022/07/29 04:31:28;;;;;;;;;;;;;;;17.03;66.73;100471.34;4997236;28;1381;-85
2022/07/29 04:33:53;;;;;;;;;;;;;;;16.93;67.99;100483.53;4994375;28;1965;-85
2022/07/29 04:36:18;;;;;;;;;;;;;;;17.00;68.21;100472.00;4993785;28;1449;-85
2022/07/29 04:38:44;;;;;;;;;;;;;;;16.99;69.77;100476.72;4977407;28;1385;-86
2022/07/29 04:41:09;;;;;;;;;;;;;;;16.92;69.12;100479.16;4976017;28;1787;-85
2022/07/29 04:43:34;;;;;;;;;;;;;;;16.94;69.44;100476.06;4992210;28;1461;-85
2022/07/29 04:46:00;;;;;;;;;;;;;;;17.01;67.75;100487.47;4991509;28;1510;-85
2022/07/29 04:48:25;;;;;;;;;;;;;;;16.94;68.72;100482.41;4969536;28;1363;-84
2022/07/29 04:50:50;;;;;;;;;;;;;;;16.96;68.37;100473.78;4975658;28;1605;-85
2022/07/29 04:53:15;;;;;;;;;;;;;;;16.96;69.53;100474.59;4976544;28;1763;-85
2022/07/29 04:55:40;;;;;;;;;;;;;;;17.01;69.16;100476.41;4975855;28;1890;-85
2022/07/29 04:58:07;;;;;;;;;;;;;;;17.02;69.31;100476.06;4983731;28;1746;-85
2022/07/29 05:00:32;;;;;;;;;;;;;;;17.09;70.38;100480.31;4967816;28;1363;-85
2022/07/29 05:02:57;;;;;;;;;;;;;;;17.02;70.52;100480.78;4988783;28;1766;-85
2022/07/29 05:05:22;;;;;;;;;;;;;;;16.92;71.43;100481.94;4974761;28;1458;-86
2022/07/29 05:07:47;;;;;;;;;;;;;;;16.96;71.84;100476.53;4990848;28;1785;-87
2022/07/29 05:10:13;;;;;;;;;;;;;;;16.99;72.40;100485.03;4975845;28;1546;-86
2022/07/29 05:12:38;;;;;;;;;;;;;;;16.99;72.78;100482.25;4964910;28;1440;-86
2022/07/29 05:15:03;;;;;;;;;;;;;;;16.98;71.12;100491.69;4975385;28;1902;-86
2022/07/29 05:17:28;;;;;;;;;;;;;;;17.01;71.67;100491.03;4967312;28;1391;-86
2022/07/29 05:19:53;;;;;;;;;;;;;;;17.07;71.36;100486.16;4965330;28;1597;-86
2022/07/29 05:22:19;;;;;;;;;;;;;;;17.12;70.45;100485.19;4975326;28;1537;-86
2022/07/29 05:24:44;;;;;;;;;;;;;;;17.18;70.65;100490.22;4990882;28;1235;-86
2022/07/29 05:27:09;;;;;;;;;;;;;;;17.26;69.98;100485.84;4989675;28;1301;-86
2022/07/29 05:29:35;;;;;;;;;;;;;;;17.22;71.18;100480.16;4989823;28;1549;-86
2022/07/29 05:32:00;;;;;;;;;;;;;;;17.21;72.44;100478.50;4975595;28;1343;-86
2022/07/29 05:34:25;;;;;;;;;;;;;;;17.21;71.20;100477.69;4974885;28;1907;-85
2022/07/29 05:36:50;;;;;;;;;;;;;;;17.23;72.35;100469.91;4990259;28;1393;-85
2022/07/29 05:39:16;;;;;;;;;;;;;;;16.96;74.82;100476.53;4975146;28;1724;-85
2022/07/29 05:41:41;;;;;;;;;;;;;;;17.04;71.48;100467.44;4975196;28;1685;-85
2022/07/29 05:44:06;;;;;;;;;;;;;;;17.15;71.87;100473.47;4987142;28;1437;-86
2022/07/29 05:46:31;;;;;;;;;;;;;;;17.16;71.30;100481.47;4978360;28;1487;-87
2022/07/29 05:48:56;;;;;;;;;;;;;;;17.25;72.53;100473.16;4973998;28;1472;-86
2022/07/29 05:51:21;;;;;;;;;;;;;;;17.26;74.17;100477.56;4992145;28;1448;-86
2022/07/29 05:53:47;;;;;;;;;;;;;;;17.30;71.60;100481.28;4989499;28;1961;-86
2022/07/29 05:56:12;;;;;;;;;;;;;;;17.36;71.69;100485.50;4973918;28;1374;-86
2022/07/29 05:58:37;;;;;;;;;;;;;;;17.44;72.74;100481.91;4977962;28;1413;-87
2022/07/29 06:01:02;;;;;;;;;;;;;;;17.48;72.64;100484.84;4987117;28;1424;-86
2022/07/29 06:03:28;;;;;;;;;;;;;;;17.53;71.65;100479.97;4974435;28;1763;-87
2022/07/29 06:05:53;;;;;;;;;;;;;;;17.58;72.85;100479.00;4977793;28;1616;-86
2022/07/29 06:08:18;;;;;;;;;;;;;;;17.64;71.69;100480.47;4987537;28;1362;-86
2022/07/29 06:10:45;;;;;;;;;;;;;;;17.67;69.59;100474.28;4992250;28;1292;-86
2022/07/29 06:13:10;;;;;;;;;;;;;;;17.63;70.62;100474.13;4990771;28;1227;-87
2022/07/29 06:15:35;;;;;;;;;;;;;;;17.67;70.43;100471.53;4976015;28;1898;-86
2022/07/29 06:18:00;;;;;;;;;;;;;;;17.65;69.33;100469.06;4975251;28;1432;-86
2022/07/29 06:20:26;;;;;;;;;;;;;;;17.61;70.97;100470.81;4990743;28;1332;-86
2022/07/29 06:22:51;;;;;;;;;;;;;;;17.58;71.28;100465.97;4974478;28;1436;-86
2022/07/29 06:25:16;;;;;;;;;;;;;;;17.52;68.92;100460.94;4974933;28;1797;-86
2022/07/29 06:27:42;;;;;;;;;;;;;;;17.55;70.14;100466.63;4974211;28;1426;-86
2022/07/29 06:30:07;;;;;;;;;;;;;;;17.64;71.78;100467.44;4977781;28;1402;-86
2022/07/29 06:32:33;;;;;;;;;;;;;;;17.69;71.80;100472.78;4974202;28;1906;-85
2022/07/29 06:34:58;;;;;;;;;;;;;;;17.69;70.67;100472.78;4976051;28;1965;-85
2022/07/29 06:37:23;;;;;;;;;;;;;;;17.69;69.62;100469.25;4975594;28;1427;-85
2022/07/29 06:40:59;;;;;;;;;;;;;;;17.64;69.45;100475.75;4990907;28;1263;-85
2022/07/29 06:42:33;;;;;;;;;;;;;;;17.65;70.26;100471.03;4976108;28;1052;-85
2022/07/29 06:44:59;;;;;;;;;;;;;;;17.62;72.13;100457.84;4975804;28;1294;-86
2022/07/29 06:47:24;;;;;;;;;;;;;;;17.61;71.25;100467.25;4985808;28;1292;-88
2022/07/29 06:49:49;;;;;;;;;;;;;;;17.61;72.31;100470.81;4989665;28;1287;-88
2022/07/29 06:52:14;;;;;;;;;;;;;;;17.49;75.09;100473.47;4956145;28;1531;-88
2022/07/29 06:54:47;;;;;;;;;;;;;;;17.47;75.73;100470.22;4955007;28;1961;-88
2022/07/29 06:57:12;;;;;;;;;;;;;;;17.46;75.12;100467.75;4989005;28;1590;-89
2022/07/29 06:59:37;;;;;;;;;;;;;;;17.41;75.35;100471.53;4967863;28;1260;-88
2022/07/29 07:02:03;;;;;;;;;;;;;;;17.38;74.60;100461.91;4962667;28;791;-88
2022/07/29 07:04:28;;;;;;;;;;;;;;;17.46;74.48;100467.75;4990005;28;1411;-88
2022/07/29 07:06:55;;;;;;;;;;;;;;;17.50;73.80;100475.09;4975796;28;875;-88
2022/07/29 07:09:20;;;;;;;;;;;;;;;17.50;74.05;100474.28;4971801;28;1275;-88
2022/07/29 07:11:45;;;;;;;;;;;;;;;17.46;73.81;100485.19;4972853;28;1493;-88
2022/07/29 07:14:10;;;;;;;;;;;;;;;17.52;74.90;100483.91;4974303;28;1902;-88
2022/07/29 07:16:36;;;;;;;;;;;;;;;17.57;73.78;100472.63;4989463;28;1295;-88
2022/07/29 07:19:01;;;;;;;;;;;;;;;17.67;73.13;100472.34;4989633;28;1253;-88
2022/07/29 07:21:27;;;;;;;;;;;;;;;17.81;72.11;100477.66;4994285;28;1659;-88
2022/07/29 07:23:52;;;;;;;;;;;;;;;17.93;70.92;100482.53;4974021;28;1663;-88
2022/07/29 07:26:17;;;;;;;;;;;;;;;17.99;72.97;100478.44;4973236;28;1075;-88
2022/07/29 07:28:43;;;;;;;;;;;;;;;18.08;71.21;100479.22;4989779;28;1295;-88
2022/07/29 07:31:09;;;;;;;;;;;;;;;18.23;70.91;100481.44;4993590;28;1500;-89
2022/07/29 07:33:34;;;;;;;;;;;;;;;18.36;70.01;100474.88;4992985;28;1382;-88
2022/07/29 07:35:59;;;;;;;;;;;;;;;18.46;68.88;100473.66;4987464;28;1973;-89
2022/07/29 07:38:24;;;;;;;;;;;;;;;18.49;68.98;100478.56;4993056;28;1412;-88
2022/07/29 07:40:49;;;;;;;;;;;;;;;18.49;64.71;100475.78;4977059;28;1237;-87
2022/07/29 07:43:15;;;;;;;;;;;;;;;18.52;66.53;100480.66;4993092;28;1288;-87
2022/07/29 07:45:41;;;;;;;;;;;;;;;18.50;67.87;100482.97;4976631;28;1237;-87
2022/07/29 07:48:06;;;;;;;;;;;;;;;18.48;66.75;100477.75;4991987;28;1355;-87
2022/07/29 07:50:31;;;;;;;;;;;;;;;18.47;67.74;100478.06;4991989;28;1499;-88
2022/07/29 07:52:57;;;;;;;;;;;;;;;18.44;65.93;100478.75;4975753;28;1484;-88
2022/07/29 07:55:23;;;;;;;;;;;;;;;18.41;66.81;100483.00;5012051;28;1898;-87
2022/07/29 07:57:48;;;;;;;;;;;;;;;18.41;66.26;100480.22;5001091;28;1713;-88
2022/07/29 08:00:14;;;;;;;;;;;;;;;18.43;67.09;100480.72;4992129;28;1762;-87
2022/07/29 08:02:39;;;;;;;;;;;;;;;18.40;66.66;100492.47;4989825;28;1620;-87
2022/07/29 08:05:05;;;;;;;;;;;;;;;18.38;66.61;100486.44;4991704;28;1645;-86
2022/07/29 08:07:30;;;;;;;;;;;;;;;18.41;65.84;100487.72;4977221;28;1352;-87
2022/07/29 08:09:56;;;;;;;;;;;;;;;18.42;66.29;100486.59;4992264;28;1312;-87
2022/07/29 08:12:21;;;;;;;;;;;;;;;18.43;68.12;100491.81;4977433;28;790;-87
2022/07/29 08:14:46;;;;;;;;;;;;;;;18.44;66.25;100487.06;4975724;28;1903;-86
2022/07/29 08:17:11;;;;;;;;;;;;;;;18.45;68.05;100489.53;4977448;28;1822;-87
2022/07/29 08:19:37;;;;;;;;;;;;;;;18.33;68.75;100483.84;4991928;28;1382;-87
2022/07/29 08:22:02;;;;;;;;;;;;;;;18.40;69.85;100492.47;5001294;28;1320;-87
2022/07/29 08:24:43;;;;;;;;;;;;;;;18.39;69.57;100496.38;5011585;28;1274;-88
2022/07/29 08:27:08;;;;;;;;;;;;;;;18.43;71.87;100491.81;5011806;28;1337;-88
2022/07/29 08:29:33;;;;;;;;;;;;;;;18.42;71.20;100501.25;5011455;28;1286;-88
2022/07/29 08:31:59;;;;;;;;;;;;;;;18.42;71.03;100501.25;4996624;28;877;-87
2022/07/29 08:34:24;;;;;;;;;;;;;;;18.39;70.96;100495.56;4997259;28;1894;-86
2022/07/29 08:36:49;;;;;;;;;;;;;;;18.39;72.40;100506.63;4976042;28;1274;-87
2022/07/29 08:39:14;;;;;;;;;;;;;;;18.40;71.40;100498.00;4989972;28;1406;-88
2022/07/29 08:41:39;;;;;;;;;;;;;;;18.43;70.39;100488.22;4990818;28;1769;-87
2022/07/29 08:44:05;;;;;;;;;;;;;;;18.48;69.39;100488.81;4963384;28;1458;-87
2022/07/29 08:46:30;;;;;;;;;;;;;;;18.55;69.51;100493.84;4983769;28;1813;-88
2022/07/29 08:48:55;;;;;;;;;;;;;;;18.57;68.79;100488.81;4973822;28;1763;-87
2022/07/29 08:51:21;;;;;;;;;;;;;;;18.61;69.06;100497.28;4980602;28;1314;-87
2022/07/29 08:53:48;;;;;;;;;;;;;;;18.63;71.20;100481.16;4976045;28;1964;-87
2022/07/29 08:56:14;;;;;;;;;;;;;;;18.66;72.33;100491.53;4991414;28;1216;-87
2022/07/29 08:58:39;;;;;;;;;;;;;;;18.71;73.34;100488.59;4991433;28;1271;-87
2022/07/29 09:01:04;;;;;;;;;;;;;;;18.75;73.44;100481.22;4976300;28;996;-87
2022/07/29 09:03:30;;;;;;;;;;;;;;;18.80;72.95;100486.56;4975307;28;1388;-87
2022/07/29 09:05:56;;;;;;;;;;;;;;;18.83;73.55;100478.38;4955678;28;1231;-87
2022/07/29 09:08:21;;;;;;;;;;;;;;;18.81;73.27;100486.22;4972396;28;1216;-87
2022/07/29 09:10:46;;;;;;;;;;;;;;;18.81;72.04;100485.41;4955814;28;1066;-88
2022/07/29 09:13:11;;;;;;;;;;;;;;;18.79;73.35;100487.72;4956639;28;1708;-87
2022/07/29 09:15:36;;;;;;;;;;;;;;;18.77;70.98;100484.47;4990518;28;1934;-87
2022/07/29 09:18:02;;;;;;;;;;;;;;;18.80;72.47;100472.69;4974326;28;1454;-88
2022/07/29 09:21:57;;;;;;;;;;;;;;;18.77;70.06;100476.16;4990372;28;1462;-87
2022/07/29 09:23:13;;;;;;;;;;;;;;;18.80;69.89;100467.16;4964421;28;1073;-87
2022/07/29 09:25:39;;;;;;;;;;;;;;;18.81;70.75;100468.78;4990729;28;1380;-88
2022/07/29 09:28:08;;;;;;;;;;;;;;;18.64;70.21;100446.69;4989315;28;1803;-87
2022/07/29 09:30:35;;;;;;;;;;;;;;;18.74;71.37;100474.84;4988034;28;1458;-87
2022/07/29 09:33:02;;;;;;;;;;;;;;;18.70;71.79;100473.91;4969524;28;1248;-87
2022/07/29 09:35:28;;;;;;;;;;;;;;;18.70;71.71;100467.56;4989343;28;1898;-89
2022/07/29 09:37:53;;;;;;;;;;;;;;;18.67;73.97;100466.25;4988187;28;1405;-88
2022/07/29 09:40:23;;;;;;;;;;;;;;;18.62;72.80;100466.47;4989691;28;1342;-87
2022/07/29 09:42:48;;;;;;;;;;;;;;;18.62;71.77;100473.97;4983844;28;1387;-88
2022/07/29 09:45:30;;;;;;;;;;;;;;;18.59;71.69;100463.53;4973581;28;1409;-87
2022/07/29 09:47:58;;;;;;;;;;;;;;;18.62;71.88;100460.91;4990428;28;1287;-88
2022/07/29 09:50:34;;;;;;;;;;;;;;;18.67;73.79;100459.91;4963478;28;1259;-88
2022/07/29 09:52:59;;;;;;;;;;;;;;;18.66;70.55;100449.97;4987142;28;1296;-87
2022/07/29 09:55:25;;;;;;;;;;;;;;;18.59;71.80;100458.81;4990225;28;1964;-88
2022/07/29 09:57:50;;;;;;;;;;;;;;;18.49;74.32;100457.19;4970712;28;1623;-87
2022/07/29 10:00:17;;;;;;;;;;;;;;;18.42;75.96;100456.09;4970802;28;1388;-88
2022/07/29 10:02:43;;;;;;;;;;;;;;;18.43;74.71;100441.91;4975117;28;1027;-87
2022/07/29 10:05:17;;;;;;;;;;;;;;;18.50;73.50;100453.28;4989113;28;1369;-88
2022/07/29 10:07:43;;;;;;;;;;;;;;;18.49;74.57;100445.28;4989570;28;1737;-88
2022/07/29 10:10:08;;;;;;;;;;;;;;;18.47;73.32;100451.16;4973536;28;1342;-87
2022/07/29 10:12:33;;;;;;;;;;;;;;;18.49;73.09;100446.09;4990119;28;953;-87
2022/07/29 10:15:01;;;;;;;;;;;;;;;18.53;73.76;100441.53;4974312;28;1977;-87
2022/07/29 10:17:26;;;;;;;;;;;;;;;18.56;72.78;100447.53;4989884;28;1157;-88
2022/07/29 10:19:51;;;;;;;;;;;;;;;18.57;74.33;100447.22;4987453;28;1397;-88
2022/07/29 10:22:17;;;;;;;;;;;;;;;18.56;78.23;100458.63;4989807;28;1280;-88
2022/07/29 10:24:42;;;;;;;;;;;;;;;18.60;79.38;100457.66;4971960;28;1212;-87
2022/07/29 10:27:08;;;;;;;;;;;;;;;18.67;79.19;100459.91;4954720;28;1783;-87
2022/07/29 10:29:33;;;;;;;;;;;;;;;18.76;79.04;100453.16;4974351;28;1434;-88
2022/07/29 10:32:08;;;;;;;;;;;;;;;18.84;78.45;100452.28;4989921;28;1314;-88
2022/07/29 10:34:51;;;;;;;;;;;;;;;18.95;76.08;100449.94;4981128;28;1875;-87
2022/07/29 10:37:23;;;;;;;;;;;;;;;19.06;74.14;100444.78;4974861;28;829;-88
2022/07/29 10:41:26;;;;;;;;;;;;;;;19.17;72.06;100451.53;4988830;28;1307;-88
2022/07/29 10:42:53;;;;;;;;;;;;;;;19.37;68.45;100447.13;4974043;28;1305;-87
2022/07/29 10:45:18;;;;;;;;;;;;;;;19.53;69.15;100442.59;4972922;28;1634;-89
2022/07/29 10:47:44;;;;;;;;;;;;;;;19.68;67.04;100443.91;4986362;28;1444;-87
2022/07/29 10:50:10;;;;;;;;;;;;;;;19.79;67.40;100443.13;4989094;28;1479;-87
2022/07/29 10:52:52;;;;;;;;;;;;;;;19.88;67.59;100449.41;4989565;28;1231;-87
2022/07/29 10:55:34;;;;;;;;;;;;;;;19.97;66.80;100439.00;4969778;28;1894;-87
2022/07/29 10:58:18;;;;;;;;;;;;;;;20.03;67.43;100434.84;4971815;28;1433;-88
2022/07/29 11:00:43;;;;;;;;;;;;;;;20.11;65.44;100437.84;4985404;28;1465;-88
2022/07/29 11:03:09;;;;;;;;;;;;;;;20.17;65.98;100434.50;4971460;28;1415;-86
2022/07/29 11:05:53;;;;;;;;;;;;;;;20.26;64.80;100434.38;4992675;28;1572;-88
2022/07/29 11:08:21;;;;;;;;;;;;;;;20.41;61.78;100439.31;4985482;28;1711;-88
2022/07/29 11:10:50;;;;;;;;;;;;;;;20.49;61.46;100434.78;4977175;28;1220;-88
2022/07/29 11:13:34;;;;;;;;;;;;;;;20.58;61.51;100432.69;4977823;28;1426;-88
2022/07/29 11:15:59;;;;;;;;;;;;;;;20.66;61.52;100432.56;4976858;28;1898;-87
2022/07/29 11:18:24;;;;;;;;;;;;;;;20.70;60.81;100433.47;4978126;28;1267;-88
2022/07/29 11:20:57;;;;;;;;;;;;;;;20.68;59.54;100435.78;4977809;28;1545;-89
2022/07/29 11:23:28;;;;;;;;;;;;;;;20.72;59.90;100431.16;4973415;28;1692;-87
2022/07/29 11:26:25;;;;;;;;;;;;;;;20.78;59.30;100429.75;4959244;29;988;-88
2022/07/29 11:28:53;;;;;;;;;;;;;;;20.93;59.50;100421.81;4976815;28;1339;-88
2022/07/29 11:31:38;;;;;;;;;;;;;;;21.09;59.33;100433.88;4976587;28;1696;-87
2022/07/29 11:34:18;;;;;;;;;;;;;;;21.19;58.64;100427.81;4992893;28;1910;-87
2022/07/29 11:37:01;;;;;;;;;;;;;;;21.34;58.32;100429.88;4978041;28;857;-88
2022/07/29 11:39:26;;;;;;;;;;;;;;;21.36;56.33;100432.25;4976750;28;1680;-88
2022/07/29 11:41:52;;;;;;;;;;;;;;;21.37;56.49;100429.13;4992314;28;1599;-89
2022/07/29 11:44:17;;;;;;;;;;;;;;;21.36;57.94;100433.06;4991565;28;1595;-88
2022/07/29 11:46:42;;;;;;;;;;;;;;;21.35;56.36;100431.47;4990912;28;1583;-88
2022/07/29 11:49:08;;;;;;;;;;;;;;;21.34;57.25;100435.44;4977610;28;1393;-88
2022/07/29 11:51:33;;;;;;;;;;;;;;;21.34;57.71;100423.47;4994547;28;1810;-87
2022/07/29 11:53:59;;;;;;;;;;;;;;;21.34;57.24;100424.28;4993106;28;1961;-87
2022/07/29 11:56:26;;;;;;;;;;;;;;;21.33;57.06;100421.84;4992979;28;1286;-87
2022/07/29 11:59:00;;;;;;;;;;;;;;;21.34;57.91;100426.25;4974503;28;1587;-84
2022/07/29 12:01:26;;;;;;;;;;;;;;;21.40;57.15;100422.88;4994632;28;1302;-87
2022/07/29 12:04:02;;;;;;;;;;;;;;;21.54;57.67;100414.09;4993790;28;1781;-87
2022/07/29 12:06:27;;;;;;;;;;;;;;;21.67;58.99;100424.00;4978207;28;893;-87
2022/07/29 12:08:52;;;;;;;;;;;;;;;21.77;57.69;100409.56;4978993;28;1772;-87
2022/07/29 12:11:18;;;;;;;;;;;;;;;21.98;56.86;100409.31;4992989;28;1294;-87
2022/07/29 12:13:43;;;;;;;;;;;;;;;22.13;57.84;100414.06;4992778;28;1290;-87
2022/07/29 12:16:09;;;;;;;;;;;;;;;22.16;56.64;100410.56;4976248;28;1894;-87
2022/07/29 12:18:34;;;;;;;;;;;;;;;22.20;58.30;100411.47;4978772;28;1308;-87
2022/07/29 12:21:03;;;;;;;;;;;;;;;22.37;56.69;100409.50;4976698;28;1787;-87
2022/07/29 12:23:28;;;;;;;;;;;;;;;22.46;54.43;100396.94;4976929;28;794;-87
2022/07/29 12:25:53;;;;;;;;;;;;;;;22.61;55.59;100392.53;4975715;28;1488;-87
2022/07/29 12:28:21;;;;;;;;;;;;;;;22.76;54.11;100391.69;4972947;28;1391;-87
2022/07/29 12:30:50;;;;;;;;;;;;;;;22.64;54.57;100380.63;4991935;28;1504;-87
2022/07/29 12:33:23;;;;;;;;;;;;;;;22.47;55.00;100393.00;4992377;28;1749;-86
2022/07/29 12:35:53;;;;;;;;;;;;;;;22.44;55.53;100396.53;4994222;28;1898;-87
2022/07/29 12:38:19;;;;;;;;;;;;;;;22.55;55.40;100382.78;4959934;28;1342;-86
2022/07/29 12:40:45;;;;;;;;;;;;;;;22.61;58.32;100392.53;4962509;28;1804;-86
2022/07/29 12:43:10;;;;;;;;;;;;;;;22.60;53.66;100382.53;4974698;28;1431;-86
2022/07/29 12:45:39;;;;;;;;;;;;;;;22.62;55.51;100377.41;4974678;28;1431;-87
2022/07/29 12:48:06;;;;;;;;;;;;;;;22.73;54.52;100370.06;4994873;28;1774;-87
2022/07/29 12:50:32;;;;;;;;;;;;;;;22.79;54.99;100374.22;4993229;28;1742;-87